Time;durP1;ratioP1;P1;durP2;ratioP2;P2;SDS_P1;SDS_P2;PMS_P1;PMS_P2;Temp;Humidity;BMP_temperature;BMP_pressure;BME280_temperature;BME280_humidity;BME280_pressure;Samples;Min_cycle;Max_cycle;Signal;HPM_P1;HPM_P2
2021/04/07 00:02:02;;;;;;;;;;;;;;;0.35;61.01;99219.52;101452;1139;70577;-71
2021/04/07 00:04:06;;;;;;;;;;;;;;;0.25;60.93;99224.09;101437;1139;84987;-72
2021/04/07 00:06:09;;;;;;;;;;;;;;;0.20;60.80;99221.03;101409;1139;76933;-72
2021/04/07 00:08:21;;;;;;;;;;;;;;;0.10;61.08;99226.44;101499;1140;64246;-72
2021/04/07 00:10:32;;;;;;;;;;;;;;;0.07;61.25;99226.73;101453;1139;79878;-72
2021/04/07 00:12:35;;;;;;;;;;;;;;;0.00;61.41;99223.84;101523;1139;71632;-71
2021/04/07 00:14:39;;;;;;;;;;;;;;;-0.05;61.73;99228.78;101508;1140;84192;-72
2021/04/07 00:16:42;;;;;;;;;;;;;;;-0.17;61.79;99232.66;101521;1140;77803;-72
2021/04/07 00:18:46;;;;;;;;;;;;;;;-0.22;61.70;99224.28;101466;1139;64259;-73
2021/04/07 00:20:50;;;;;;;;;;;;;;;-0.22;62.14;99228.78;101446;1135;79861;-73
2021/04/07 00:22:54;;;;;;;;;;;;;;;-0.25;62.07;99229.07;101600;1136;71075;-73
2021/04/07 00:24:58;;;;;;;;;;;;;;;-0.27;62.55;99231.02;101602;1136;84827;-72
2021/04/07 00:27:06;;;;;;;;;;;;;;;-0.30;62.60;99226.04;101574;1136;78980;-72
2021/04/07 00:29:10;;;;;;;;;;;;;;;-0.33;62.27;99234.30;101612;1131;64285;-72
2021/04/07 00:31:13;;;;;;;;;;;;;;;-0.38;62.80;99226.76;101579;1137;80396;-72
2021/04/07 00:33:17;;;;;;;;;;;;;;;-0.38;62.82;99225.92;101595;1137;71317;-72
2021/04/07 00:35:21;;;;;;;;;;;;;;;-0.42;63.02;99224.56;101781;1136;83361;-72
2021/04/07 00:37:24;;;;;;;;;;;;;;;-0.32;62.64;99225.33;101770;1136;77051;-71
2021/04/07 00:39:28;;;;;;;;;;;;;;;-0.27;62.57;99215.94;101801;1136;64445;-71
2021/04/07 00:41:31;;;;;;;;;;;;;;;-0.30;63.05;99220.73;101761;1137;79327;-71
2021/04/07 00:43:35;;;;;;;;;;;;;;;-0.34;63.07;99222.00;101776;1136;72015;-71
2021/04/07 00:45:39;;;;;;;;;;;;;;;-0.36;62.84;99223.98;101798;1136;83246;-72
2021/04/07 00:47:43;;;;;;;;;;;;;;;-0.40;63.27;99222.59;101755;1136;78772;-71
2021/04/07 00:49:46;;;;;;;;;;;;;;;-0.45;63.23;99211.59;101781;1136;64333;-72
2021/04/07 00:51:50;;;;;;;;;;;;;;;-0.42;63.48;99213.95;101754;1136;79380;-72
2021/04/07 00:53:56;;;;;;;;;;;;;;;-0.44;63.10;99216.73;101805;1137;70132;-72
2021/04/07 00:56:00;;;;;;;;;;;;;;;-0.47;63.50;99213.57;101756;1136;84350;-73
2021/04/07 00:58:07;;;;;;;;;;;;;;;-0.45;63.56;99211.59;101730;1136;78833;-72
2021/04/07 01:00:14;;;;;;;;;;;;;;;-0.51;63.62;99215.67;101792;1136;64346;-72
2021/04/07 01:02:19;;;;;;;;;;;;;;;-0.54;63.62;99209.82;101751;1136;80465;-71
2021/04/07 01:04:22;;;;;;;;;;;;;;;-0.52;63.77;99215.84;101806;1132;70561;-70
2021/04/07 01:06:27;;;;;;;;;;;;;;;-0.53;64.18;99215.00;101779;1136;84900;-71
2021/04/07 01:08:35;;;;;;;;;;;;;;;-0.45;63.27;99214.25;101824;1137;78854;-73
2021/04/07 01:10:39;;;;;;;;;;;;;;;-0.46;63.61;99225.83;101798;1131;64522;-74
2021/04/07 01:12:43;;;;;;;;;;;;;;;-0.45;63.95;99224.86;101738;1136;81694;-72
2021/04/07 01:14:47;;;;;;;;;;;;;;;-0.44;64.12;99221.23;101795;1136;71351;-72
2021/04/07 01:16:54;;;;;;;;;;;;;;;-0.45;64.30;99223.05;101791;1136;84710;-72
2021/04/07 01:18:58;;;;;;;;;;;;;;;-0.48;63.66;99222.50;101760;1136;78217;-73
2021/04/07 01:21:02;;;;;;;;;;;;;;;-0.46;64.01;99234.63;101774;1132;64221;-73
2021/04/07 01:23:07;;;;;;;;;;;;;;;-0.50;64.35;99227.13;101807;1131;80207;-72
2021/04/07 01:25:12;;;;;;;;;;;;;;;-0.48;63.64;99230.45;101760;1136;72352;-74
2021/04/07 01:27:16;;;;;;;;;;;;;;;-0.49;64.22;99228.77;101752;1136;84409;-72
2021/04/07 01:29:20;;;;;;;;;;;;;;;-0.52;64.18;99227.25;101743;1136;78432;-72
2021/04/07 01:31:23;;;;;;;;;;;;;;;-0.52;64.47;99224.60;101798;1136;64279;-73
2021/04/07 01:33:27;;;;;;;;;;;;;;;-0.57;64.18;99231.33;101760;1136;80249;-73
2021/04/07 01:35:30;;;;;;;;;;;;;;;-0.60;64.34;99229.81;101794;1136;71432;-73
2021/04/07 01:37:35;;;;;;;;;;;;;;;-0.64;64.11;99228.45;101765;1136;84324;-73
2021/04/07 01:39:42;;;;;;;;;;;;;;;-0.68;64.24;99225.25;101796;1136;78872;-75
2021/04/07 01:41:46;;;;;;;;;;;;;;;-0.64;65.04;99231.95;101758;1137;64288;-75
2021/04/07 01:43:50;;;;;;;;;;;;;;;-0.61;64.55;99233.47;101821;1136;81588;-72
2021/04/07 01:45:53;;;;;;;;;;;;;;;-0.56;64.37;99233.85;101780;1132;70716;-73
2021/04/07 01:47:58;;;;;;;;;;;;;;;-0.57;64.81;99233.98;101761;1136;84709;-71
2021/04/07 01:50:04;;;;;;;;;;;;;;;-0.55;65.16;99232.88;101756;1136;79412;-71
2021/04/07 01:52:08;;;;;;;;;;;;;;;-0.57;64.60;99228.68;101773;1136;64226;-72
2021/04/07 01:54:13;;;;;;;;;;;;;;;-0.53;64.48;99238.86;101772;1136;81253;-74
2021/04/07 01:56:20;;;;;;;;;;;;;;;-0.53;64.98;99233.56;101781;1136;72915;-72
2021/04/07 01:58:23;;;;;;;;;;;;;;;-0.53;65.11;99238.02;101786;1136;84402;-72
2021/04/07 02:00:27;;;;;;;;;;;;;;;-0.60;65.17;99238.61;101776;1137;78616;-73
2021/04/07 02:02:30;;;;;;;;;;;;;;;-0.63;65.18;99241.55;101803;1136;64287;-72
2021/04/07 02:04:34;;;;;;;;;;;;;;;-0.66;65.50;99244.49;101782;1132;80772;-72
2021/04/07 02:06:37;;;;;;;;;;;;;;;-0.73;65.06;99242.58;101789;1136;71426;-72
2021/04/07 02:08:44;;;;;;;;;;;;;;;-0.70;65.76;99247.59;101541;1131;83242;-71
2021/04/07 02:10:50;;;;;;;;;;;;;;;-0.71;65.72;99256.52;101407;1139;78132;-71
2021/04/07 02:12:54;;;;;;;;;;;;;;;-0.77;65.22;99252.63;101522;1132;64442;-71
2021/04/07 02:14:57;;;;;;;;;;;;;;;-0.80;65.95;99255.60;101445;1139;81456;-71
2021/04/07 02:17:03;;;;;;;;;;;;;;;-0.78;65.80;99253.64;101435;1139;71104;-73
2021/04/07 02:19:08;;;;;;;;;;;;;;;-0.76;65.72;99259.62;101739;1137;84554;-73
2021/04/07 02:21:12;;;;;;;;;;;;;;;-0.73;65.96;99250.53;101397;1139;78505;-73
2021/04/07 02:23:16;;;;;;;;;;;;;;;-0.76;66.03;99253.47;101818;1136;64477;-73
2021/04/07 02:25:19;;;;;;;;;;;;;;;-0.75;65.91;99256.00;101749;1137;80150;-73
2021/04/07 02:27:24;;;;;;;;;;;;;;;-0.75;65.75;99265.77;101791;1136;72123;-73
2021/04/07 02:29:28;;;;;;;;;;;;;;;-0.78;66.55;99263.39;101827;1136;84712;-73
2021/04/07 02:31:32;;;;;;;;;;;;;;;-0.74;66.39;99265.60;101763;1136;77537;-74
2021/04/07 02:33:35;;;;;;;;;;;;;;;-0.77;65.85;99259.78;101843;1130;64285;-73
2021/04/07 02:35:39;;;;;;;;;;;;;;;-0.80;66.30;99262.72;101760;1136;80750;-73
2021/04/07 02:37:42;;;;;;;;;;;;;;;-0.78;66.29;99261.59;101843;1136;72374;-73
2021/04/07 02:39:47;;;;;;;;;;;;;;;-0.82;65.79;99262.84;101775;1136;84513;-73
2021/04/07 02:41:53;;;;;;;;;;;;;;;-0.82;66.09;99265.50;101759;1136;77680;-73
2021/04/07 02:44:04;;;;;;;;;;;;;;;-0.83;66.25;99263.00;101450;1132;64448;-73
2021/04/07 02:46:07;;;;;;;;;;;;;;;-0.91;66.32;99261.09;101409;1140;81165;-74
2021/04/07 02:48:11;;;;;;;;;;;;;;;-0.87;66.97;99262.45;101487;1139;71686;-74
2021/04/07 02:50:15;;;;;;;;;;;;;;;-0.86;66.70;99268.59;101444;1139;83393;-74
2021/04/07 02:52:20;;;;;;;;;;;;;;;-0.87;66.55;99273.05;101314;1132;78007;-73
2021/04/07 02:54:23;;;;;;;;;;;;;;;-0.85;66.42;99267.63;101459;1139;64323;-72
2021/04/07 02:56:30;;;;;;;;;;;;;;;-0.89;66.47;99275.02;101397;1140;81765;-74
2021/04/07 02:58:35;;;;;;;;;;;;;;;-0.88;66.75;99274.02;101462;1140;71877;-72
2021/04/07 03:00:38;;;;;;;;;;;;;;;-0.89;66.29;99279.48;101416;1139;84595;-72
2021/04/07 03:02:42;;;;;;;;;;;;;;;-0.93;66.64;99278.08;101507;1132;76965;-72
2021/04/07 03:04:46;;;;;;;;;;;;;;;-0.90;66.91;99280.45;101499;1132;64341;-73
2021/04/07 03:06:49;;;;;;;;;;;;;;;-0.91;66.77;99287.59;101420;1139;81484;-74
2021/04/07 03:08:54;;;;;;;;;;;;;;;-0.89;66.91;99288.27;101481;1132;71839;-76
2021/04/07 03:10:58;;;;;;;;;;;;;;;-0.90;66.81;99283.09;101443;1139;84566;-75
2021/04/07 03:13:01;;;;;;;;;;;;;;;-0.94;67.33;99279.08;101474;1139;78451;-75
2021/04/07 03:15:09;;;;;;;;;;;;;;;-0.98;67.00;99283.83;101508;1139;63763;-72
2021/04/07 03:17:12;;;;;;;;;;;;;;;-0.97;66.89;99288.16;101558;1139;81277;-76
2021/04/07 03:19:16;;;;;;;;;;;;;;;-0.96;66.93;99284.51;101584;1139;71090;-77
2021/04/07 03:21:19;;;;;;;;;;;;;;;-0.94;67.71;99287.88;101515;1139;84736;-77
2021/04/07 03:23:23;;;;;;;;;;;;;;;-1.03;67.37;99288.73;101518;1139;77725;-77
2021/04/07 03:25:26;;;;;;;;;;;;;;;-0.98;67.81;99277.69;101573;1133;64341;-74
2021/04/07 03:27:30;;;;;;;;;;;;;;;-1.01;67.47;99286.76;101563;1132;80125;-78
2021/04/07 03:29:33;;;;;;;;;;;;;;;-0.96;68.15;99283.70;101452;1139;71905;-77
2021/04/07 03:31:40;;;;;;;;;;;;;;;-0.96;67.47;99294.30;101419;1139;83499;-77
2021/04/07 03:33:44;;;;;;;;;;;;;;;-0.95;67.62;99304.74;101469;1140;77788;-77
2021/04/07 03:35:48;;;;;;;;;;;;;;;-0.97;67.71;99300.57;101438;1139;64262;-76
2021/04/07 03:37:54;;;;;;;;;;;;;;;-0.97;68.19;99303.22;101517;1132;80128;-75
2021/04/07 03:40:01;;;;;;;;;;;;;;;-0.97;68.27;99303.22;101530;1139;70375;-75
2021/04/07 03:42:05;;;;;;;;;;;;;;;-1.01;68.25;99307.12;101447;1139;84231;-72
2021/04/07 03:44:11;;;;;;;;;;;;;;;-0.98;67.63;99302.38;101432;1132;78130;-71
2021/04/07 03:46:17;;;;;;;;;;;;;;;-0.95;68.04;99302.09;101436;1139;64429;-72
2021/04/07 03:48:25;;;;;;;;;;;;;;;-0.92;67.83;99303.62;101461;1140;82160;-75
2021/04/07 03:50:32;;;;;;;;;;;;;;;-0.94;68.13;99313.54;101464;1139;70881;-75
2021/04/07 03:52:35;;;;;;;;;;;;;;;-0.97;68.50;99306.71;101485;1132;83274;-75
2021/04/07 03:54:40;;;;;;;;;;;;;;;-0.93;68.54;99313.38;101434;1140;77216;-74
2021/04/07 03:56:46;;;;;;;;;;;;;;;-0.93;68.51;99316.03;101455;1132;64329;-75
2021/04/07 03:58:50;;;;;;;;;;;;;;;-0.99;68.09;99316.59;101468;1139;81057;-72
2021/04/07 04:00:53;;;;;;;;;;;;;;;-0.98;68.73;99315.63;101441;1139;72291;-72
2021/04/07 04:02:58;;;;;;;;;;;;;;;-0.91;68.92;99323.86;101492;1139;84705;-73
2021/04/07 04:05:06;;;;;;;;;;;;;;;-0.84;68.92;99323.13;101516;1140;78278;-73
2021/04/07 04:07:09;;;;;;;;;;;;;;;-0.80;68.87;99316.58;101477;1139;64288;-73
2021/04/07 04:09:13;;;;;;;;;;;;;;;-0.70;69.04;99325.33;101476;1140;81050;-74
2021/04/07 04:11:17;;;;;;;;;;;;;;;-0.66;68.86;99329.34;101461;1130;71761;-74
2021/04/07 04:13:21;;;;;;;;;;;;;;;-0.69;69.21;99326.98;101416;1140;83793;-71
2021/04/07 04:15:25;;;;;;;;;;;;;;;-0.66;68.32;99339.95;101470;1132;77718;-72
2021/04/07 04:17:28;;;;;;;;;;;;;;;-0.55;68.98;99336.32;101503;1139;64395;-72
2021/04/07 04:19:32;;;;;;;;;;;;;;;-0.45;69.02;99330.96;101427;1139;79845;-72
2021/04/07 04:21:35;;;;;;;;;;;;;;;-0.34;68.70;99333.43;101422;1139;72048;-72
2021/04/07 04:23:39;;;;;;;;;;;;;;;-0.26;68.85;99328.22;101461;1132;83634;-72
2021/04/07 04:25:42;;;;;;;;;;;;;;;-0.17;69.02;99332.66;101416;1139;77939;-72
2021/04/07 04:27:47;;;;;;;;;;;;;;;-0.08;68.60;99339.71;101459;1140;64296;-75
2021/04/07 04:29:51;;;;;;;;;;;;;;;0.02;68.53;99335.20;101453;1132;80554;-76
2021/04/07 04:31:55;;;;;;;;;;;;;;;0.11;68.95;99346.76;101471;1132;70925;-73
2021/04/07 04:33:58;;;;;;;;;;;;;;;0.20;68.69;99343.19;101432;1140;84215;-72
2021/04/07 04:36:02;;;;;;;;;;;;;;;0.18;68.79;99337.20;101412;1139;77164;-72
2021/04/07 04:38:08;;;;;;;;;;;;;;;0.25;69.18;99341.75;101463;1139;64365;-75
2021/04/07 04:40:14;;;;;;;;;;;;;;;0.37;68.77;99340.56;101445;1132;81109;-75
2021/04/07 04:42:17;;;;;;;;;;;;;;;0.40;69.08;99345.58;101420;1139;71977;-71
2021/04/07 04:44:24;;;;;;;;;;;;;;;0.39;69.25;99338.58;101447;1139;85200;-72
2021/04/07 04:46:27;;;;;;;;;;;;;;;0.52;69.02;99344.34;101407;1139;77072;-71
2021/04/07 04:48:31;;;;;;;;;;;;;;;0.56;69.11;99334.27;101414;1139;64300;-75
2021/04/07 04:50:37;;;;;;;;;;;;;;;0.58;69.21;99346.41;101423;1139;81136;-75
2021/04/07 04:52:44;;;;;;;;;;;;;;;0.66;69.02;99345.64;101522;1139;71109;-72
2021/04/07 04:54:47;;;;;;;;;;;;;;;0.74;69.30;99343.08;101460;1140;84495;-71
2021/04/07 04:56:51;;;;;;;;;;;;;;;0.84;69.12;99343.82;101411;1139;79720;-73
2021/04/07 04:58:54;;;;;;;;;;;;;;;0.91;69.16;99342.20;101452;1139;64230;-72
2021/04/07 05:00:58;;;;;;;;;;;;;;;1.09;69.38;99342.19;101450;1132;80833;-73
2021/04/07 05:03:02;;;;;;;;;;;;;;;1.18;69.24;99343.92;101493;1139;71753;-72
2021/04/07 05:05:10;;;;;;;;;;;;;;;1.29;68.79;99345.49;101435;1139;84615;-72
2021/04/07 05:07:14;;;;;;;;;;;;;;;1.36;68.95;99352.69;101439;1139;78529;-72
2021/04/07 05:09:18;;;;;;;;;;;;;;;1.33;68.97;99355.66;101439;1139;64365;-71
2021/04/07 05:11:23;;;;;;;;;;;;;;;1.46;68.48;99352.56;101413;1139;80944;-72
2021/04/07 05:13:27;;;;;;;;;;;;;;;1.43;69.16;99359.03;101494;1139;71221;-72
2021/04/07 05:15:31;;;;;;;;;;;;;;;1.45;68.96;99348.25;101470;1140;83187;-72
2021/04/07 05:17:38;;;;;;;;;;;;;;;1.40;68.82;99355.88;101512;1132;78385;-71
2021/04/07 05:19:41;;;;;;;;;;;;;;;1.45;69.02;99358.89;101455;1139;64234;-71
2021/04/07 05:21:48;;;;;;;;;;;;;;;1.45;69.29;99359.73;101413;1139;80746;-72
2021/04/07 05:23:51;;;;;;;;;;;;;;;1.48;69.44;99351.44;101416;1140;72378;-72
2021/04/07 05:25:55;;;;;;;;;;;;;;;1.67;68.92;99350.38;101427;1139;84173;-71
2021/04/07 05:28:03;;;;;;;;;;;;;;;1.75;68.97;99351.26;101468;1140;78352;-72
2021/04/07 05:30:08;;;;;;;;;;;;;;;1.86;68.90;99351.95;101458;1132;64709;-73
2021/04/07 05:32:12;;;;;;;;;;;;;;;1.90;68.43;99354.13;101455;1139;81889;-72
2021/04/07 05:34:15;;;;;;;;;;;;;;;1.96;68.44;99355.32;101569;1122;71460;-72
2021/04/07 05:36:20;;;;;;;;;;;;;;;1.95;68.62;99351.02;101435;1139;85140;-69
2021/04/07 05:38:27;;;;;;;;;;;;;;;1.96;68.61;99352.66;101430;1139;78531;-71
2021/04/07 05:40:30;;;;;;;;;;;;;;;1.95;68.83;99362.47;101513;1140;64272;-71
2021/04/07 05:42:34;;;;;;;;;;;;;;;1.95;68.80;99361.66;101401;1140;81058;-70
2021/04/07 05:44:37;;;;;;;;;;;;;;;2.04;68.16;99368.67;101403;1135;70871;-72
2021/04/07 05:46:43;;;;;;;;;;;;;;;2.06;68.33;99372.03;101476;1140;84496;-69
2021/04/07 05:48:47;;;;;;;;;;;;;;;2.05;68.41;99375.67;101433;1139;77680;-69
2021/04/07 05:50:53;;;;;;;;;;;;;;;2.04;67.92;99372.17;101411;1140;64512;-68
2021/04/07 05:52:58;;;;;;;;;;;;;;;2.06;68.32;99375.50;101396;1140;81728;-69
2021/04/07 05:55:03;;;;;;;;;;;;;;;2.09;68.39;99364.53;101470;1140;71026;-69
2021/04/07 05:57:07;;;;;;;;;;;;;;;2.13;68.43;99376.55;101478;1139;83766;-69
2021/04/07 05:59:11;;;;;;;;;;;;;;;2.28;68.20;99364.27;101460;1140;78119;-68
2021/04/07 06:01:14;;;;;;;;;;;;;;;2.45;68.06;99370.47;101432;1139;64272;-71
2021/04/07 06:03:30;;;;;;;;;;;;;;;2.60;68.05;99378.68;101484;1134;81540;-70
2021/04/07 06:05:35;;;;;;;;;;;;;;;2.65;68.16;99387.02;101472;1140;72462;-69
2021/04/07 06:07:38;;;;;;;;;;;;;;;2.60;67.96;99384.85;101484;1140;84768;-72
2021/04/07 06:09:41;;;;;;;;;;;;;;;2.62;67.72;99387.34;101436;1134;78208;-69
2021/04/07 06:11:45;;;;;;;;;;;;;;;2.64;67.24;99386.17;101401;1140;64503;-69
2021/04/07 06:13:49;;;;;;;;;;;;;;;2.67;67.82;99385.02;101463;1134;81305;-72
2021/04/07 06:15:53;;;;;;;;;;;;;;;2.70;67.72;99390.86;101427;1140;71495;-72
2021/04/07 06:17:59;;;;;;;;;;;;;;;2.69;67.54;99383.03;101426;1140;85001;-72
2021/04/07 06:20:10;;;;;;;;;;;;;;;2.70;67.45;99393.52;101465;1140;77547;-69
2021/04/07 06:22:14;;;;;;;;;;;;;;;2.74;67.42;99391.38;101466;1140;64236;-70
2021/04/07 06:24:20;;;;;;;;;;;;;;;2.70;67.24;99395.35;101407;1140;80962;-70
2021/04/07 06:26:24;;;;;;;;;;;;;;;2.77;67.06;99396.38;101414;1140;72132;-67
2021/04/07 06:28:27;;;;;;;;;;;;;;;2.76;66.85;99400.88;101430;1140;84434;-69
2021/04/07 06:30:43;;;;;;;;;;;;;;;2.73;67.14;99403.03;101477;1139;78973;-68
2021/04/07 06:32:47;;;;;;;;;;;;;;;2.69;66.95;99391.03;101436;1134;64284;-79
2021/04/07 06:34:50;;;;;;;;;;;;;;;2.58;66.95;99396.67;101394;1140;80860;-76
2021/04/07 06:36:54;;;;;;;;;;;;;;;2.54;66.97;99404.16;101426;1140;70617;-77
2021/04/07 06:39:01;;;;;;;;;;;;;;;2.52;66.93;99406.16;101455;1135;83493;-70
2021/04/07 06:41:10;;;;;;;;;;;;;;;2.54;66.97;99403.31;101510;1140;78053;-76
2021/04/07 06:43:17;;;;;;;;;;;;;;;2.49;67.25;99403.81;101462;1140;64326;-77
2021/04/07 06:45:21;;;;;;;;;;;;;;;2.43;67.35;99403.61;101421;1140;80942;-70
2021/04/07 06:47:26;;;;;;;;;;;;;;;2.43;67.44;99409.78;101424;1140;71017;-70
2021/04/07 06:49:33;;;;;;;;;;;;;;;2.54;67.25;99419.31;101496;1139;84700;-76
2021/04/07 06:51:37;;;;;;;;;;;;;;;2.60;67.18;99421.33;101459;1135;76998;-76
2021/04/07 06:53:43;;;;;;;;;;;;;;;2.57;66.97;99432.32;101446;1140;64355;-70
2021/04/07 06:55:47;;;;;;;;;;;;;;;2.62;67.27;99427.33;101475;1140;80494;-70
2021/04/07 06:57:51;;;;;;;;;;;;;;;2.70;66.89;99428.19;101413;1140;72001;-70
2021/04/07 06:59:54;;;;;;;;;;;;;;;2.70;66.87;99428.19;101512;1140;84510;-72
2021/04/07 07:01:58;;;;;;;;;;;;;;;2.80;66.88;99428.06;101401;1140;78688;-70
2021/04/07 07:04:05;;;;;;;;;;;;;;;2.76;66.96;99432.03;101496;1134;64323;-69
2021/04/07 07:06:15;;;;;;;;;;;;;;;2.67;66.67;99431.18;101438;1139;80391;-72
2021/04/07 07:08:21;;;;;;;;;;;;;;;2.65;66.51;99435.84;101104;1142;71213;-74
2021/04/07 07:10:39;;;;;;;;;;;;;;;2.65;66.80;99435.84;101479;1140;84250;-76
2021/04/07 07:12:44;;;;;;;;;;;;;;;2.73;66.48;99441.20;101470;1134;77156;-76
2021/04/07 07:14:47;;;;;;;;;;;;;;;2.66;66.56;99442.86;101499;1140;64269;-70
2021/04/07 07:16:56;;;;;;;;;;;;;;;2.73;66.71;99451.86;101444;1140;81571;-70
2021/04/07 07:18:59;;;;;;;;;;;;;;;2.79;66.66;99439.71;101483;1140;71464;-76
2021/04/07 07:21:14;;;;;;;;;;;;;;;2.76;66.76;99451.55;101090;1142;85203;-77
2021/04/07 07:23:22;;;;;;;;;;;;;;;2.79;66.47;99448.55;101066;1143;77132;-71
2021/04/07 07:25:26;;;;;;;;;;;;;;;2.80;66.64;99450.20;101468;1140;64384;-70
2021/04/07 07:27:41;;;;;;;;;;;;;;;2.74;66.51;99461.55;101425;1140;80812;-71
2021/04/07 07:29:54;;;;;;;;;;;;;;;2.61;66.63;99455.00;101440;1139;70898;-76
2021/04/07 07:32:05;;;;;;;;;;;;;;;2.59;66.45;99455.15;101483;1139;84757;-76
2021/04/07 07:34:09;;;;;;;;;;;;;;;2.59;66.35;99462.30;101409;1139;77364;-68
2021/04/07 07:36:14;;;;;;;;;;;;;;;2.65;66.72;99467.84;101432;1139;64240;-69
2021/04/07 07:38:27;;;;;;;;;;;;;;;2.55;66.36;99466.31;101649;1125;79734;-69
2021/04/07 07:40:31;;;;;;;;;;;;;;;2.63;66.30;99463.67;101554;1124;70861;-73
2021/04/07 07:42:35;;;;;;;;;;;;;;;2.66;66.32;99472.19;101431;1140;84460;-73
2021/04/07 07:44:41;;;;;;;;;;;;;;;2.71;66.49;99463.69;101424;1140;78044;-72
2021/04/07 07:46:49;;;;;;;;;;;;;;;2.78;66.48;99473.54;101461;1139;64234;-74
2021/04/07 07:48:52;;;;;;;;;;;;;;;2.89;66.40;99473.23;101560;1123;81064;-71
2021/04/07 07:50:59;;;;;;;;;;;;;;;3.02;66.23;99469.27;101872;1123;71332;-69
2021/04/07 07:53:16;;;;;;;;;;;;;;;3.03;66.21;99478.92;102980;1140;85170;-68
2021/04/07 07:55:21;;;;;;;;;;;;;;;3.04;66.07;99467.27;102953;1140;79233;-69
2021/04/07 07:57:31;;;;;;;;;;;;;;;3.12;65.64;99478.79;102972;1140;61994;-67
2021/04/07 07:59:34;;;;;;;;;;;;;;;3.18;65.68;99479.97;102764;1140;80260;-68
2021/04/07 08:01:46;;;;;;;;;;;;;;;3.23;65.52;99482.97;102978;1139;70830;-72
2021/04/07 08:03:50;;;;;;;;;;;;;;;3.10;65.74;99475.46;102972;1140;83399;-72
2021/04/07 08:05:58;;;;;;;;;;;;;;;2.99;65.69;99489.92;102754;1135;78076;-72
2021/04/07 08:08:08;;;;;;;;;;;;;;;3.14;65.44;99489.28;102999;1133;62095;-71
2021/04/07 08:10:13;;;;;;;;;;;;;;;3.22;65.26;99486.63;102973;1140;81576;-70
2021/04/07 08:12:19;;;;;;;;;;;;;;;3.27;65.62;99489.66;102994;1140;71702;-70
2021/04/07 08:14:24;;;;;;;;;;;;;;;3.44;65.37;99489.50;102967;1140;84809;-70
2021/04/07 08:16:28;;;;;;;;;;;;;;;3.46;65.21;99495.49;102945;1139;77176;-71
2021/04/07 08:18:32;;;;;;;;;;;;;;;3.51;65.16;99493.19;102971;1140;62020;-71
2021/04/07 08:20:38;;;;;;;;;;;;;;;3.58;64.99;99496.00;102966;1140;80770;-68
2021/04/07 08:22:42;;;;;;;;;;;;;;;3.65;64.96;99491.69;102983;1140;70911;-67
2021/04/07 08:24:49;;;;;;;;;;;;;;;3.74;65.26;99493.33;102960;1123;85256;-70
2021/04/07 08:26:53;;;;;;;;;;;;;;;3.86;64.81;99494.66;102960;1135;78066;-69
2021/04/07 08:28:59;;;;;;;;;;;;;;;3.89;64.72;99493.48;102995;1140;62066;-68
2021/04/07 08:31:04;;;;;;;;;;;;;;;3.99;64.58;99505.66;102974;1135;81657;-69
2021/04/07 08:33:11;;;;;;;;;;;;;;;4.09;64.62;99500.95;102972;1139;71769;-68
2021/04/07 08:35:26;;;;;;;;;;;;;;;4.18;64.28;99499.11;102972;1139;83215;-77
2021/04/07 08:37:32;;;;;;;;;;;;;;;4.11;64.00;99503.48;102971;1140;78988;-78
2021/04/07 08:39:43;;;;;;;;;;;;;;;4.05;64.09;99504.15;102988;1140;62330;-75
2021/04/07 08:41:49;;;;;;;;;;;;;;;4.09;64.06;99500.15;102973;1140;80502;-76
2021/04/07 08:43:54;;;;;;;;;;;;;;;4.11;63.59;99506.98;102955;1121;71507;-68
2021/04/07 08:46:12;;;;;;;;;;;;;;;4.08;63.98;99504.66;102967;1140;86301;-75
2021/04/07 08:48:19;;;;;;;;;;;;;;;4.18;63.81;99507.97;102844;1123;77745;-75
2021/04/07 08:50:30;;;;;;;;;;;;;;;4.20;63.69;99505.14;102977;1136;62112;-75
2021/04/07 08:52:42;;;;;;;;;;;;;;;4.13;63.63;99510.31;102934;1140;80570;-75
2021/04/07 08:54:47;;;;;;;;;;;;;;;4.15;63.35;99510.97;102965;1140;72069;-74
2021/04/07 08:56:56;;;;;;;;;;;;;;;4.11;63.25;99520.35;102948;1140;85678;-74
2021/04/07 08:59:01;;;;;;;;;;;;;;;4.09;63.47;99516.98;102967;1140;78742;-73
2021/04/07 09:01:05;;;;;;;;;;;;;;;4.04;63.44;99516.67;102979;1140;61987;-73
2021/04/07 09:03:14;;;;;;;;;;;;;;;4.09;63.30;99519.66;102974;1140;80271;-74
2021/04/07 09:05:20;;;;;;;;;;;;;;;4.06;63.58;99514.69;102967;1140;71725;-73
2021/04/07 09:07:40;;;;;;;;;;;;;;;4.21;63.64;99520.16;102969;1140;84144;-75
2021/04/07 09:09:54;;;;;;;;;;;;;;;4.37;63.54;99506.73;102932;1140;77460;-70
2021/04/07 09:11:58;;;;;;;;;;;;;;;4.57;63.55;99512.53;102963;1140;62005;-72
2021/04/07 09:14:04;;;;;;;;;;;;;;;4.74;63.40;99512.30;102730;1139;80604;-68
2021/04/07 09:16:10;;;;;;;;;;;;;;;5.14;63.57;99513.93;102971;1140;73145;-70
2021/04/07 09:18:18;;;;;;;;;;;;;;;5.58;63.42;99503.42;102956;1140;84666;-68
2021/04/07 09:20:53;;;;;;;;;;;;;;;6.04;62.52;99509.61;102995;1134;77524;-68
2021/04/07 09:23:08;;;;;;;;;;;;;;;6.13;61.40;99508.49;102516;1143;61981;-68
2021/04/07 09:25:18;;;;;;;;;;;;;;;6.11;60.72;99504.33;102786;1140;81038;-69
2021/04/07 09:27:26;;;;;;;;;;;;;;;6.01;60.86;99509.97;102960;1140;72008;-71
2021/04/07 09:29:31;;;;;;;;;;;;;;;5.88;60.49;99507.05;102966;1140;83214;-69
2021/04/07 09:31:39;;;;;;;;;;;;;;;5.97;60.68;99500.61;102933;1140;77755;-71
2021/04/07 09:33:44;;;;;;;;;;;;;;;6.10;60.79;99497.33;102982;1140;62200;-69
2021/04/07 09:36:00;;;;;;;;;;;;;;;6.40;60.63;99494.45;102975;1140;80152;-70
2021/04/07 09:38:07;;;;;;;;;;;;;;;7.02;60.77;99494.04;102952;1140;71474;-70
2021/04/07 09:40:20;;;;;;;;;;;;;;;7.74;60.03;99492.11;102942;1140;83302;-71
2021/04/07 09:42:28;;;;;;;;;;;;;;;8.26;59.40;99491.70;102943;1137;77579;-70
2021/04/07 09:44:45;;;;;;;;;;;;;;;8.46;57.90;99483.78;102962;1140;62143;-71
2021/04/07 09:46:58;;;;;;;;;;;;;;;8.58;57.73;99482.18;102954;1140;80312;-71
2021/04/07 09:49:05;;;;;;;;;;;;;;;8.69;57.26;99479.77;102982;1140;71292;-71
2021/04/07 09:51:25;;;;;;;;;;;;;;;8.79;56.82;99480.22;102976;1140;83261;-71
2021/04/07 09:53:31;;;;;;;;;;;;;;;8.51;56.01;99486.70;102966;1140;78525;-68
2021/04/07 09:55:35;;;;;;;;;;;;;;;8.61;56.09;99488.01;102969;1139;61997;-65
2021/04/07 09:57:39;;;;;;;;;;;;;;;8.64;55.83;99482.23;102944;1140;81002;-68
2021/04/07 09:59:44;;;;;;;;;;;;;;;8.84;55.52;99485.02;102962;1140;71374;-68
2021/04/07 10:01:48;;;;;;;;;;;;;;;8.80;54.95;99491.83;102970;1140;84977;-69
2021/04/07 10:03:54;;;;;;;;;;;;;;;8.64;54.12;99493.00;102946;1140;77442;-67
2021/04/07 10:05:58;;;;;;;;;;;;;;;8.36;54.15;99505.66;102976;1140;62036;-73
2021/04/07 10:08:14;;;;;;;;;;;;;;;8.27;54.17;99501.44;102977;1140;81098;-79
2021/04/07 10:10:25;;;;;;;;;;;;;;;8.22;54.34;99504.70;102994;1140;71192;-80
2021/04/07 10:12:32;;;;;;;;;;;;;;;8.14;54.54;99507.54;102958;1140;85116;-72
2021/04/07 10:14:36;;;;;;;;;;;;;;;8.12;54.47;99504.22;102940;1140;78948;-73
2021/04/07 10:16:41;;;;;;;;;;;;;;;8.13;54.37;99496.98;102964;1140;62043;-70
2021/04/07 10:18:45;;;;;;;;;;;;;;;8.44;54.11;99505.50;102922;1140;81838;-71
2021/04/07 10:20:53;;;;;;;;;;;;;;;8.63;54.09;99503.95;102959;1140;72219;-70
2021/04/07 10:22:58;;;;;;;;;;;;;;;8.61;53.51;99495.25;102957;1140;84970;-71
2021/04/07 10:25:11;;;;;;;;;;;;;;;8.48;53.31;99498.70;102952;1140;78717;-71
2021/04/07 10:27:20;;;;;;;;;;;;;;;8.13;53.00;99503.17;102961;1137;62137;-68
2021/04/07 10:29:26;;;;;;;;;;;;;;;7.87;52.54;99512.89;102945;1140;81412;-75
2021/04/07 10:31:44;;;;;;;;;;;;;;;7.66;53.83;99514.55;102937;1140;73407;-69
2021/04/07 10:34:22;;;;;;;;;;;;;;;7.83;53.58;99515.13;102535;1143;84774;-67
2021/04/07 10:36:31;;;;;;;;;;;;;;;8.28;54.17;99511.19;102547;1137;77280;-68
2021/04/07 10:38:40;;;;;;;;;;;;;;;8.72;54.08;99506.30;102625;1140;62048;-68
2021/04/07 10:40:45;;;;;;;;;;;;;;;8.94;54.45;99503.48;102752;1133;80633;-76
2021/04/07 10:42:49;;;;;;;;;;;;;;;9.24;53.85;99508.38;102612;1140;71095;-78
2021/04/07 10:45:04;;;;;;;;;;;;;;;9.43;53.01;99504.07;102641;1140;86089;-75
2021/04/07 10:47:15;;;;;;;;;;;;;;;9.56;52.25;99514.88;102608;1140;78485;-74
2021/04/07 10:49:23;;;;;;;;;;;;;;;9.64;51.61;99503.89;102736;1140;62147;-70
2021/04/07 10:51:30;;;;;;;;;;;;;;;9.66;51.14;99515.33;102827;1140;80577;-77
2021/04/07 10:53:37;;;;;;;;;;;;;;;9.43;50.23;99510.30;102540;1143;71468;-71